Warm Up - Blue
Course: Road America · 2026-09-06 08:20AM
Weather Conditions
Temp 66°F
(62–72°F range)
Temp type NORMAL
Track DRY
Precip 0.0 mm (NONE)
Humidity 88%
Wind 9 km/h
Cloud 77%
OVERALL
BY CLASS
| POS | # | NAME | CLASS | BEST LAP | GAP | INTERVAL | LAPS |
|---|---|---|---|---|---|---|---|
| 1 | 90 | NICOLE ROBICHAUD | GTD3 | 2:20.458 | - | - | 3 |
| 2 | 111 | NICOLAS GIGUERE | GTD3 | 2:21.848 | 1.390 | 1.390 | 3 |
| 3 | 22 | JOHN EDDLEMON | GTD3 | 2:22.108 | 1.650 | 0.260 | 3 |
| 4 | 888 | JEFF BRETON | GTD3 | 2:22.547 | 2.089 | 0.439 | 3 |
| 5 | 158 | SCOTT GILL | GTD3 | 2:24.546 | 4.088 | 1.999 | 3 |
| 6 | 199 | BOB VAN ZANT | GT3 | 2:27.739 | 7.281 | 3.193 | 3 |
| 7 | 144 | JEFF ROBINS | GTD1 | 2:28.870 | 8.412 | 1.131 | 3 |
| 8 | 9 | ANGUS ROGERS | GTB1 | 2:28.984 | 8.526 | 0.114 | 3 |
| 9 | 221 | PIERRE PAQUET | GTD2 | 2:29.791 | 9.333 | 0.807 | 3 |
| 10 | 747 | BRAD WEBER | GTD3 | 2:31.033 | 10.575 | 1.242 | 3 |
| 11 | 951 | ANDREW BURKE | GTB1 | 2:31.794 | 11.336 | 0.761 | 3 |
| 12 | 127 | STEVE GARRISON | GT3 | 2:32.064 | 11.606 | 0.270 | 3 |
| 13 | 444 | TONY CLINTON | GTB1 | 2:32.154 | 11.696 | 0.090 | 3 |
| 14 | 726 | RUSSEL MARTORANA | GTB1 | 2:32.236 | 11.778 | 0.082 | 3 |
| 15 | 62 | COLIN HAUER | GTD2 | 2:34.096 | 13.638 | 1.860 | 3 |
| 16 | 447 | JON DUNSKI | GT3 | 2:34.251 | 13.793 | 0.155 | 3 |
| 17 | 66 | CLAUDIO KAEMPF | GT4 | 2:35.548 | 15.090 | 1.297 | 3 |
| 18 | 696 | MIKE ORIGER | GTB1 | 2:36.783 | 16.325 | 1.235 | 3 |
| 19 | 60 | DAVID WELLS | GTD2 | 2:37.008 | 16.550 | 0.225 | 3 |
| 20 | 4 | SAM MAMMANO | GTB1 | 2:38.031 | 17.573 | 1.023 | 3 |
| 21 | 819 | ROBERT GEE | GTD3 | 2:40.506 | 20.048 | 2.475 | 3 |
| 22 | 556 | DOMINICK BELVEDERE | SPC | 2:42.466 | 22.008 | 1.960 | 3 |
| 23 | 498 | COLLIN SCHMITZ | GTB1 | 2:44.606 | 24.148 | 2.140 | 3 |
| 24 | 719 | TRES DRAWHORN | SPC | 2:53.760 | 33.302 | 9.154 | 3 |
| 25 | 14 | ARTHUR SOLTYS | GTD2 | 3:21.751 | 1:01.293 | 27.991 | 2 |
| 26 | 194 | KEVIN CYR | GTD3 | 3:31.674 | 1:11.216 | 9.923 | 2 |
Pole Position